createdAt,value
2022-11-24T04:15:59.234Z,2.22
2022-11-24T04:18:27.570Z,2.53
2022-11-24T04:20:55.725Z,2.42
2022-11-24T04:23:24.552Z,3.53
2022-11-24T04:25:52.719Z,3.13
2022-11-24T04:28:20.948Z,2.10
2022-11-24T04:30:49.183Z,2.42
2022-11-24T04:33:18.807Z,4.65
2022-11-24T04:35:46.959Z,3.03
2022-11-24T04:39:20.073Z,3.15
2022-11-24T04:41:03.680Z,1.70
2022-11-24T04:43:36.357Z,2.28
2022-11-24T04:46:08.109Z,2.42
2022-11-24T04:48:37.791Z,2.47
2022-11-24T04:51:06.745Z,1.88
2022-11-24T04:53:34.988Z,2.20
2022-11-24T04:56:06.200Z,2.25
2022-11-24T04:58:34.456Z,2.72
2022-11-24T05:01:02.659Z,3.97
2022-11-24T05:03:30.818Z,1.67
2022-11-24T05:06:01.607Z,1.98
2022-11-24T05:08:29.789Z,2.13
2022-11-24T05:10:57.992Z,2.15
2022-11-24T05:13:26.159Z,2.42
2022-11-24T05:15:54.341Z,2.45
2022-11-24T05:18:22.613Z,2.35
2022-11-24T05:20:50.787Z,3.50
2022-11-24T05:23:20.347Z,3.22
2022-11-24T05:25:48.533Z,2.22
2022-11-24T05:28:17.001Z,2.03
2022-11-24T05:30:45.818Z,3.47
2022-11-24T05:33:18.965Z,4.10
2022-11-24T05:35:47.718Z,2.45
2022-11-24T05:38:16.588Z,2.85
2022-11-24T05:40:46.402Z,3.00
2022-11-24T05:43:15.385Z,3.67
2022-11-24T05:45:44.368Z,4.30
2022-11-24T05:48:14.849Z,2.22
2022-11-24T05:50:43.495Z,3.83
2022-11-24T05:53:13.428Z,1.77
2022-11-24T05:55:43.218Z,3.20
2022-11-24T05:58:12.780Z,2.70
2022-11-24T06:00:41.169Z,3.80
2022-11-24T06:03:11.387Z,2.33
2022-11-24T06:05:40.050Z,3.22
2022-11-24T06:08:08.241Z,3.55
2022-11-24T06:10:36.957Z,9.25
2022-11-24T06:13:07.349Z,3.38
2022-11-24T06:15:37.752Z,3.95
2022-11-24T06:18:06.108Z,3.50
2022-11-24T06:20:34.351Z,4.60
2022-11-24T06:23:03.052Z,2.53
2022-11-24T06:25:31.267Z,4.22
2022-11-24T06:27:59.448Z,4.20
2022-11-24T06:30:27.675Z,3.53
2022-11-24T06:32:57.911Z,3.22
2022-11-24T06:35:26.175Z,2.75
2022-11-24T06:37:54.379Z,2.95
2022-11-24T06:40:22.551Z,2.90
2022-11-24T06:42:53.619Z,4.50
2022-11-24T06:45:21.767Z,2.95
2022-11-24T06:47:49.938Z,4.18
2022-11-24T06:50:19.652Z,6.13
2022-11-24T06:52:47.964Z,6.85
2022-11-24T06:55:16.235Z,5.90
2022-11-24T06:57:44.388Z,8.30
2022-11-24T07:00:13.522Z,4.13
2022-11-24T07:02:45.859Z,5.70
2022-11-24T07:05:14.607Z,4.65
2022-11-24T07:07:44.497Z,3.53
2022-11-24T07:10:12.740Z,4.20
2022-11-24T07:12:40.952Z,2.72
2022-11-24T07:15:10.165Z,3.85
2022-11-24T07:17:39.023Z,3.90
2022-11-24T07:20:09.095Z,5.13
2022-11-24T07:22:37.277Z,2.10
2022-11-24T07:25:09.797Z,2.80
2022-11-24T07:27:38.097Z,2.97
2022-11-24T07:30:07.231Z,4.55
2022-11-24T07:32:35.509Z,5.40
2022-11-24T07:35:03.671Z,3.28
2022-11-24T07:37:32.080Z,3.05
2022-11-24T07:40:00.361Z,2.58
2022-11-24T07:42:30.034Z,4.60
2022-11-24T07:44:58.193Z,2.95
2022-11-24T07:47:26.417Z,3.20
2022-11-24T07:49:54.654Z,2.58
2022-11-24T07:52:23.475Z,5.28
2022-11-24T07:54:51.669Z,0.95
2022-11-24T07:57:20.081Z,3.08
2022-11-24T07:59:49.650Z,5.35
2022-11-24T08:02:17.815Z,3.15
2022-11-24T08:04:46.043Z,4.22
2022-11-24T08:07:14.284Z,5.05
2022-11-24T08:09:42.442Z,3.35
2022-11-24T08:12:10.647Z,3.05
2022-11-24T08:14:38.824Z,3.92
2022-11-24T08:17:08.432Z,2.65
2022-11-24T08:19:36.637Z,5.22
2022-11-24T08:22:04.838Z,2.83
2022-11-24T08:24:33.257Z,3.95
2022-11-24T08:27:01.699Z,3.85
2022-11-24T08:29:30.360Z,6.50
2022-11-24T08:31:58.829Z,4.45
2022-11-24T08:34:28.436Z,6.10
2022-11-24T08:36:56.668Z,4.35
2022-11-24T08:39:24.919Z,2.83
2022-11-24T08:41:53.102Z,4.75
2022-11-24T08:44:21.546Z,3.95
2022-11-24T08:46:50.177Z,6.35
2022-11-24T08:49:19.032Z,3.95
2022-11-24T08:51:50.008Z,3.97
2022-11-24T08:54:19.779Z,5.72
2022-11-24T08:56:50.241Z,6.25
2022-11-24T08:59:18.596Z,4.68
2022-11-24T09:01:46.892Z,5.07
2022-11-24T09:04:15.285Z,4.60
2022-11-24T09:06:43.497Z,5.72
2022-11-24T09:09:13.228Z,3.92
2022-11-24T09:11:41.537Z,4.65
2022-11-24T09:14:09.721Z,7.05
2022-11-24T09:16:38.085Z,6.13
2022-11-24T09:19:09.091Z,2.47
2022-11-24T09:21:39.091Z,2.88
2022-11-24T09:24:08.514Z,7.97
2022-11-24T09:26:44.540Z,3.15
2022-11-24T09:29:14.807Z,4.45
2022-11-24T09:31:43.102Z,5.30
2022-11-24T09:34:15.573Z,2.58
2022-11-24T09:36:43.800Z,4.60
2022-11-24T09:39:12.650Z,4.30
2022-11-24T09:41:51.429Z,4.07
2022-11-24T09:44:59.553Z,5.15
2022-11-24T09:47:40.376Z,4.93
2022-11-24T09:50:15.836Z,4.05
2022-11-24T09:52:51.623Z,2.78
2022-11-24T09:55:40.113Z,4.70
2022-11-24T09:58:18.438Z,5.20
2022-11-24T10:00:49.667Z,3.95
2022-11-24T10:03:24.530Z,4.53
2022-11-24T10:05:53.335Z,4.78
2022-11-24T10:08:33.962Z,4.35
2022-11-24T10:11:07.163Z,3.42
2022-11-24T10:14:01.432Z,5.80
2022-11-24T10:16:43.223Z,6.65
2022-11-24T10:19:22.039Z,14.60
2022-11-24T10:22:00.731Z,5.40
2022-11-24T10:24:46.205Z,6.68
2022-11-24T10:27:18.638Z,3.75
2022-11-24T10:29:52.203Z,6.97
2022-11-24T10:32:23.189Z,8.10
2022-11-24T10:34:51.761Z,7.63
2022-11-24T10:37:27.097Z,5.90
2022-11-24T10:40:04.895Z,7.50
2022-11-24T10:42:36.913Z,7.28
2022-11-24T10:45:15.445Z,6.40
2022-11-24T10:47:45.228Z,3.05
2022-11-24T10:50:22.688Z,4.88
2022-11-24T10:52:57.995Z,3.47
2022-11-24T10:55:26.239Z,6.93
2022-11-24T10:57:54.441Z,6.03
2022-11-24T11:00:35.952Z,6.82
2022-11-24T11:03:18.949Z,4.40
2022-11-24T11:05:52.029Z,1.70
2022-11-24T11:08:26.310Z,2.88
2022-11-24T11:11:20.200Z,4.18
2022-11-24T11:13:56.875Z,3.63
2022-11-24T11:16:34.772Z,1.60
2022-11-24T11:19:15.763Z,3.50
2022-11-24T11:22:01.660Z,2.17
2022-11-24T11:24:30.212Z,1.98
2022-11-24T11:27:02.440Z,1.85
2022-11-24T11:35:14.406Z,1.67
2022-11-24T11:37:43.339Z,4.13
2022-11-24T11:40:16.969Z,2.30
2022-11-24T11:43:04.507Z,2.67
2022-11-24T11:45:36.622Z,1.83
2022-11-24T11:48:28.219Z,1.38
2022-11-24T11:53:58.670Z,1.10
2022-11-24T11:56:29.507Z,1.00
2022-11-24T11:59:25.218Z,2.17
2022-11-24T12:02:28.881Z,3.03
2022-11-24T12:05:01.699Z,1.80
2022-11-24T12:07:57.103Z,1.65
2022-11-24T12:10:35.178Z,1.85
2022-11-24T12:13:25.891Z,2.13
2022-11-24T12:15:56.105Z,2.75
2022-11-24T12:18:56.628Z,2.58
2022-11-24T12:21:28.443Z,5.20
2022-11-24T12:24:09.383Z,2.20
2022-11-24T12:26:45.371Z,2.40
2022-11-24T12:29:39.852Z,2.42
2022-11-24T12:32:22.259Z,1.95
2022-11-24T12:34:55.937Z,3.80
2022-11-24T12:37:47.721Z,4.15
2022-11-24T12:40:24.171Z,3.20
2022-11-24T12:43:00.303Z,3.00
2022-11-24T12:45:35.332Z,2.55
2022-11-24T12:48:25.926Z,2.30
2022-11-24T12:50:58.145Z,4.00
2022-11-24T12:53:32.082Z,3.65
2022-11-24T12:56:06.808Z,3.78
2022-11-24T12:58:42.837Z,3.13
2022-11-24T13:01:18.619Z,3.70
2022-11-24T13:03:59.927Z,4.55
2022-11-24T13:06:35.105Z,2.20
2022-11-24T13:09:10.909Z,3.28
2022-11-24T13:11:44.921Z,2.58
2022-11-24T13:14:24.172Z,3.28
2022-11-24T13:19:51.202Z,3.85
2022-11-24T13:22:25.686Z,4.13
2022-11-24T13:25:18.506Z,1.88
2022-11-24T13:27:49.375Z,1.92
2022-11-24T13:30:59.598Z,3.10
2022-11-24T13:33:48.404Z,2.78
2022-11-24T13:36:32.809Z,4.25
2022-11-24T13:39:02.521Z,2.35
2022-11-24T13:42:43.620Z,2.10
2022-11-24T13:45:03.235Z,2.30
2022-11-24T13:47:36.996Z,2.15
2022-11-24T13:50:08.351Z,1.60
2022-11-24T13:52:44.743Z,1.77
2022-11-24T13:55:38.825Z,3.60
2022-11-24T13:58:27.381Z,1.88
2022-11-24T14:01:06.324Z,2.47
2022-11-24T14:03:37.561Z,1.67
2022-11-24T14:06:07.000Z,4.28
2022-11-24T14:08:38.291Z,1.98
2022-11-24T14:11:15.461Z,2.28
2022-11-24T14:13:43.783Z,2.13
2022-11-24T14:16:18.639Z,1.90
2022-11-24T14:18:48.132Z,1.83
2022-11-24T14:21:26.385Z,3.20
2022-11-24T14:23:57.555Z,3.80
2022-11-24T14:26:30.955Z,2.15
2022-11-24T14:29:06.151Z,2.92
2022-11-24T14:31:35.908Z,4.80
2022-11-24T14:34:19.408Z,3.78
2022-11-24T14:36:47.963Z,2.55
2022-11-24T14:39:18.843Z,6.50
2022-11-24T14:41:53.698Z,6.18
2022-11-24T14:44:25.220Z,2.42
2022-11-24T14:47:03.194Z,3.85
2022-11-24T14:49:34.427Z,3.78
2022-11-24T14:52:05.293Z,1.80
2022-11-24T14:54:33.931Z,2.53
2022-11-24T14:57:04.460Z,3.58
2022-11-24T14:59:36.140Z,4.22
2022-11-24T15:05:04.096Z,3.95
2022-11-24T15:07:32.632Z,3.38
2022-11-24T15:10:02.366Z,4.53
2022-11-24T15:12:34.438Z,5.20
2022-11-24T15:15:04.561Z,4.50
2022-11-24T15:17:34.836Z,3.25
2022-11-24T15:20:09.080Z,2.78
2022-11-24T15:22:40.643Z,2.70
2022-11-24T15:25:29.410Z,4.93
2022-11-24T15:27:57.601Z,3.42
2022-11-24T15:30:26.178Z,3.35
2022-11-24T15:32:57.118Z,3.67
2022-11-24T15:35:26.060Z,4.72
2022-11-24T15:37:54.298Z,4.10
2022-11-24T15:40:22.720Z,5.63
2022-11-24T15:42:53.285Z,3.70
2022-11-24T15:45:23.000Z,4.50
2022-11-24T15:47:51.397Z,3.80
2022-11-24T15:50:21.617Z,4.53
2022-11-24T15:52:50.381Z,3.67
2022-11-24T15:55:20.482Z,5.13
2022-11-24T15:57:49.247Z,4.90
2022-11-24T16:00:20.081Z,6.53
2022-11-24T16:02:48.911Z,3.83
2022-11-24T16:05:18.381Z,5.47
2022-11-24T16:07:48.001Z,7.47
2022-11-24T16:10:24.221Z,7.18
2022-11-24T16:12:52.945Z,4.28
2022-11-24T16:15:21.142Z,4.97
2022-11-24T16:17:49.513Z,7.38
2022-11-24T16:20:18.294Z,6.50
2022-11-24T16:22:47.885Z,4.35
2022-11-24T16:25:16.188Z,6.28
2022-11-24T16:27:44.567Z,10.23
2022-11-24T16:30:14.352Z,9.70
2022-11-24T16:32:42.670Z,4.80
2022-11-24T16:35:11.078Z,7.60
2022-11-24T16:37:39.322Z,6.50
2022-11-24T16:40:10.453Z,4.97
2022-11-24T16:42:38.645Z,5.78
2022-11-24T16:45:07.539Z,5.97
2022-11-24T16:47:40.226Z,5.88
2022-11-24T16:50:09.851Z,8.35
2022-11-24T16:52:38.423Z,5.28
2022-11-24T16:55:09.681Z,8.63
2022-11-24T16:57:37.944Z,17.25
2022-11-24T17:00:07.242Z,8.45
2022-11-24T17:02:35.555Z,7.85
2022-11-24T17:05:04.011Z,6.32
2022-11-24T17:07:32.592Z,7.25
2022-11-24T17:10:01.068Z,6.53
2022-11-24T17:12:30.696Z,7.82
2022-11-24T17:15:30.390Z,8.88
2022-11-24T17:18:16.136Z,10.30
2022-11-24T17:20:36.171Z,5.25
2022-11-24T17:23:04.330Z,7.43
2022-11-24T17:25:34.095Z,5.70
2022-11-24T17:28:03.659Z,7.80
2022-11-24T17:30:31.852Z,6.03
2022-11-24T17:33:00.087Z,5.43
2022-11-24T17:35:28.286Z,6.25
2022-11-24T17:37:57.144Z,4.97
2022-11-24T17:40:29.439Z,8.40
2022-11-24T17:43:00.440Z,6.70
2022-11-24T17:45:31.537Z,10.23
2022-11-24T17:48:00.959Z,5.65
2022-11-24T17:50:29.168Z,8.98
2022-11-24T17:52:57.460Z,10.10
2022-11-24T17:55:25.698Z,4.32
2022-11-24T17:57:53.891Z,5.63
2022-11-24T18:00:22.416Z,4.20
2022-11-24T18:02:52.075Z,3.78
2022-11-24T18:05:21.320Z,3.38
2022-11-24T18:07:49.548Z,4.97
2022-11-24T18:10:18.060Z,5.53
2022-11-24T18:12:46.253Z,3.97
2022-11-24T18:15:14.443Z,4.82
2022-11-24T18:17:42.795Z,3.30
2022-11-24T18:20:13.250Z,5.95
2022-11-24T18:25:29.735Z,9.20
2022-11-24T18:27:58.046Z,4.03
2022-11-24T18:30:26.304Z,4.68
2022-11-24T18:32:54.514Z,6.57
2022-11-24T18:35:24.309Z,6.95
2022-11-24T18:37:52.494Z,4.20
2022-11-24T18:40:20.854Z,4.78
2022-11-24T18:42:49.052Z,2.65
2022-11-24T18:45:17.374Z,4.28
2022-11-24T18:47:45.586Z,3.65
2022-11-24T18:50:13.780Z,4.45
2022-11-24T18:52:43.400Z,5.45
2022-11-24T18:55:11.969Z,2.70
2022-11-24T18:57:40.154Z,2.40
2022-11-24T19:00:09.979Z,5.18
2022-11-24T19:02:38.201Z,2.75
2022-11-24T19:05:06.803Z,3.45
2022-11-24T19:07:35.106Z,4.03
2022-11-24T19:10:05.155Z,3.58
2022-11-24T19:12:33.353Z,3.22
2022-11-24T19:15:01.559Z,2.63
2022-11-24T19:17:29.753Z,3.58
2022-11-24T19:19:57.926Z,3.38
2022-11-24T19:22:26.127Z,4.65
2022-11-24T19:24:54.304Z,7.07
2022-11-24T19:27:23.879Z,2.13
2022-11-24T19:29:54.890Z,1.60
2022-11-24T19:32:23.079Z,4.53
2022-11-24T19:34:51.752Z,2.83
2022-11-24T19:37:21.567Z,3.35
2022-11-24T19:39:50.084Z,2.83
2022-11-24T19:42:18.367Z,3.90
2022-11-24T19:44:52.960Z,2.60
2022-11-24T19:47:24.300Z,2.28
2022-11-24T19:49:52.523Z,2.90
2022-11-24T19:52:20.721Z,0.63
2022-11-24T19:54:48.895Z,2.83
2022-11-24T19:57:17.062Z,2.05
2022-11-24T19:59:45.800Z,2.72
2022-11-24T20:02:15.436Z,1.98
2022-11-24T20:04:43.677Z,2.78
2022-11-24T20:07:11.903Z,1.73
2022-11-24T20:09:42.037Z,1.70
2022-11-24T20:12:11.650Z,1.92
2022-11-24T20:14:41.020Z,2.10
2022-11-24T20:17:15.471Z,2.38
2022-11-24T20:19:46.676Z,2.15
2022-11-24T20:22:18.195Z,3.63
2022-11-24T20:24:46.945Z,2.78
2022-11-24T20:27:15.499Z,4.63
2022-11-24T20:29:46.922Z,4.10
2022-11-24T20:34:49.371Z,2.13
2022-11-24T20:37:17.556Z,1.90
2022-11-24T20:39:45.783Z,2.00
2022-11-24T20:42:13.967Z,1.35
2022-11-24T20:44:42.142Z,2.30
2022-11-24T20:47:10.348Z,3.88
2022-11-24T20:49:38.568Z,2.13
2022-11-24T20:52:08.326Z,4.25
2022-11-24T20:54:36.957Z,1.33
2022-11-24T20:57:05.390Z,1.02
2022-11-24T20:59:33.532Z,1.55
2022-11-24T21:02:01.725Z,2.20
2022-11-24T21:04:29.966Z,2.58
2022-11-24T21:06:58.172Z,0.98
2022-11-24T21:09:28.239Z,4.93
2022-11-24T21:11:56.425Z,2.90
2022-11-24T21:14:25.679Z,2.45
2022-11-24T21:16:54.304Z,2.45
2022-11-24T21:19:22.595Z,1.98
2022-11-24T21:21:50.887Z,1.23
2022-11-24T21:24:21.690Z,3.08
2022-11-24T21:26:52.873Z,2.55
2022-11-24T21:29:23.669Z,2.17
2022-11-24T21:31:52.094Z,2.07
2022-11-24T21:34:20.460Z,3.47
2022-11-24T21:36:48.938Z,4.05
2022-11-24T21:39:17.624Z,0.93
2022-11-24T21:41:46.076Z,2.08
2022-11-24T21:44:16.024Z,1.63
2022-11-24T21:46:49.561Z,2.65
2022-11-24T21:49:20.859Z,1.67
2022-11-24T21:51:55.123Z,1.10
2022-11-24T21:54:23.525Z,2.25
2022-11-24T21:56:51.836Z,2.78
2022-11-24T21:59:22.877Z,1.83
2022-11-24T22:01:51.350Z,1.98
2022-11-24T22:04:19.549Z,2.20
2022-11-24T22:06:47.732Z,2.35
2022-11-24T22:09:18.255Z,2.03
2022-11-24T22:11:49.197Z,0.80
2022-11-24T22:14:17.675Z,2.70
2022-11-24T22:16:47.480Z,2.45
2022-11-24T22:19:15.764Z,6.15
2022-11-24T22:21:44.090Z,2.28
2022-11-24T22:24:12.625Z,3.72
2022-11-24T22:26:40.796Z,1.70
2022-11-24T22:29:09.106Z,1.70
2022-11-24T22:31:37.358Z,1.98
2022-11-24T22:34:07.129Z,1.33
2022-11-24T22:36:36.687Z,1.88
2022-11-24T22:39:06.638Z,2.17
2022-11-24T22:41:36.662Z,1.45
2022-11-24T22:44:05.432Z,1.45
2022-11-24T22:46:33.857Z,1.23
2022-11-24T22:49:02.976Z,1.17
2022-11-24T22:51:34.171Z,1.80
2022-11-24T22:54:04.263Z,1.20
2022-11-24T22:56:33.389Z,1.38
2022-11-24T22:59:02.304Z,2.00
2022-11-24T23:01:32.148Z,1.63
2022-11-24T23:04:00.627Z,1.52
2022-11-24T23:06:30.603Z,1.55
2022-11-24T23:09:01.258Z,1.50
2022-11-24T23:11:37.164Z,0.95
2022-11-24T23:14:07.177Z,1.02
2022-11-24T23:16:35.511Z,0.70
2022-11-24T23:19:03.989Z,2.63
2022-11-24T23:21:33.701Z,1.63
2022-11-24T23:24:05.181Z,1.63
2022-11-24T23:26:34.971Z,1.52
2022-11-24T23:29:03.271Z,1.52
2022-11-24T23:31:31.504Z,2.65
2022-11-24T23:34:01.162Z,1.92
2022-11-24T23:36:29.983Z,1.40
2022-11-24T23:39:02.014Z,1.83
2022-11-24T23:41:33.327Z,1.45
2022-11-24T23:44:01.813Z,0.85
2022-11-24T23:46:30.009Z,0.77
2022-11-24T23:48:58.586Z,1.58
2022-11-24T23:51:28.188Z,1.05
2022-11-24T23:53:57.499Z,1.25
2022-11-24T23:56:27.675Z,1.55
2022-11-24T23:58:57.208Z,2.35
